createdAt,value
2023-05-19T00:08:01.516Z,0
2023-05-19T00:13:20.876Z,0
2023-05-19T00:23:59.219Z,0
2023-05-19T00:39:57.581Z,0
2023-05-19T00:50:36.346Z,0
2023-05-19T00:55:55.342Z,0
2023-05-19T01:06:34.672Z,0
2023-05-19T01:11:54.183Z,0
2023-05-19T01:22:33.161Z,0
2023-05-19T01:29:07.299Z,0
2023-05-19T01:33:13.158Z,0
2023-05-19T01:38:32.223Z,0
2023-05-19T01:49:10.730Z,0
2023-05-19T01:54:29.812Z,0
2023-05-19T02:05:09.170Z,0
2023-05-19T02:21:07.493Z,0
2023-05-19T02:31:45.284Z,0
2023-05-19T02:37:04.346Z,0
2023-05-19T02:47:43.070Z,0
2023-05-19T02:58:20.118Z,0
2023-05-19T03:03:39.891Z,0
2023-05-19T03:14:18.104Z,0
2023-05-19T03:24:56.266Z,0.003
2023-05-19T03:40:54.386Z,0.0307
2023-05-19T03:51:32.325Z,0.0399
2023-05-19T03:56:51.597Z,0.041
2023-05-19T04:07:30.848Z,0.0521
2023-05-19T04:12:50.296Z,0.0562
2023-05-19T04:23:28.806Z,0.0705
2023-05-19T04:39:27.174Z,0.1009
2023-05-19T04:50:06.006Z,0.1265
2023-05-19T04:55:25.669Z,0.1398
2023-05-19T05:06:04.969Z,0.1557
2023-05-19T05:16:43.831Z,0.168
2023-05-19T05:22:02.934Z,0.1792
2023-05-19T05:32:41.870Z,0.3398
2023-05-19T05:38:00.670Z,0.3592
2023-05-19T05:48:39.005Z,0.4311
2023-05-19T06:04:36.587Z,0.4104
2023-05-19T06:15:14.381Z,0.2753
2023-05-19T06:20:33.484Z,0.2729
2023-05-19T06:27:07.511Z,0.2917
2023-05-19T06:31:12.872Z,0.3331
2023-05-19T06:47:10.413Z,0.3853
2023-05-19T06:57:48.591Z,0.3138
2023-05-19T07:03:08.383Z,0.2936
2023-05-19T07:11:41.362Z,0.3027
2023-05-19T07:13:46.340Z,0.3072
2023-05-19T07:19:05.457Z,0.3369
2023-05-19T07:29:43.897Z,0.394
2023-05-19T07:45:41.695Z,0.7736
2023-05-19T07:56:19.557Z,0.9347
2023-05-19T08:01:38.339Z,1.1594
2023-05-19T08:12:17.236Z,0.8449
2023-05-19T08:22:55.003Z,0.9175
2023-05-19T08:28:14.136Z,0.55
2023-05-19T08:38:51.770Z,0.6912
2023-05-19T08:44:11.008Z,0.9726
2023-05-19T08:54:48.922Z,0.8477
2023-05-19T09:05:25.633Z,0.5891
2023-05-19T09:10:44.613Z,0.5727
2023-05-19T09:21:23.552Z,0.5776
2023-05-19T09:26:42.759Z,0.6072
2023-05-19T09:37:20.171Z,0.5469
2023-05-19T09:53:18.201Z,0.4921
2023-05-19T10:14:36.098Z,0.4575
2023-05-19T10:19:55.197Z,0.4152
2023-05-19T10:30:33.740Z,0.573
2023-05-19T10:41:10.964Z,0.595
2023-05-19T10:46:29.871Z,0.5992
2023-05-19T10:57:07.985Z,0.4044
2023-05-19T11:02:26.861Z,0.3615
2023-05-19T11:13:06.345Z,0.3689
2023-05-19T11:29:01.777Z,0.4043
2023-05-19T11:39:39.496Z,0.4038
2023-05-19T11:44:58.878Z,0.4272
2023-05-19T11:55:37.262Z,0.6689
2023-05-19T12:11:33.767Z,0.7052
2023-05-19T12:22:12.645Z,0.5503
2023-05-19T12:27:33.500Z,0.6902
2023-05-19T12:38:11.039Z,0.5101
2023-05-19T12:43:28.884Z,0.5226
2023-05-19T12:54:07.398Z,0.3147
2023-05-19T13:04:45.925Z,0.3574
2023-05-19T13:10:05.217Z,0.3814
2023-05-19T13:20:52.880Z,0.4972
2023-05-19T13:26:03.010Z,0.5435
2023-05-19T13:36:40.889Z,0.5621
2023-05-19T13:47:19.576Z,0.494
2023-05-19T13:52:38.833Z,0.5116
2023-05-19T14:08:35.482Z,0.5716
2023-05-19T14:19:13.211Z,1.05
2023-05-19T14:35:11.704Z,0.507
2023-05-19T14:45:49.763Z,0.5412
2023-05-19T14:51:08.845Z,0.4761
2023-05-19T15:01:47.032Z,0.3783
2023-05-19T15:07:10.013Z,0.3967
2023-05-19T15:17:45.343Z,0.7266
2023-05-19T15:33:43.770Z,0.4146
2023-05-19T15:44:21.346Z,0.3955
2023-05-19T15:49:40.307Z,0.3239
2023-05-19T16:00:18.525Z,0.3135
2023-05-19T16:16:16.175Z,0.2715
2023-05-19T16:26:54.457Z,0.2528
2023-05-19T16:32:14.169Z,0.2319
2023-05-19T16:42:51.766Z,0.2336
2023-05-19T16:53:29.682Z,0.2197
2023-05-19T17:04:07.661Z,0.222
2023-05-19T17:09:27.157Z,0.2288
2023-05-19T17:20:05.619Z,0.1879
2023-05-19T17:25:24.472Z,0.1768
2023-05-19T17:36:02.912Z,0.1641
2023-05-19T17:52:24.737Z,0.1253
2023-05-19T17:57:43.865Z,0.1101
2023-05-19T18:08:32.164Z,0.0872
2023-05-19T18:19:00.562Z,0.0714
2023-05-19T18:24:19.776Z,0.0582
2023-05-19T18:34:57.710Z,0.0441
2023-05-19T18:40:16.478Z,0.0365
2023-05-19T18:50:54.474Z,0.0269
2023-05-19T19:01:32.476Z,0.0155
2023-05-19T19:06:51.555Z,0.012
2023-05-19T19:17:30.876Z,0.0006
2023-05-19T19:33:28.155Z,0
2023-05-19T19:44:06.460Z,0
2023-05-19T19:49:25.662Z,0
2023-05-19T20:00:04.731Z,0
2023-05-19T20:05:23.463Z,0
2023-05-19T20:16:11.773Z,0
2023-05-19T20:21:20.765Z,0
2023-05-19T20:31:59.431Z,0
2023-05-19T20:42:38.166Z,0
2023-05-19T20:47:57.603Z,0
2023-05-19T20:58:35.804Z,0
2023-05-19T21:03:54.957Z,0
2023-05-19T21:14:32.876Z,0
2023-05-19T21:30:30.357Z,0
2023-05-19T21:41:08.184Z,0
2023-05-19T21:57:05.499Z,0
2023-05-19T22:07:44.073Z,0
2023-05-19T22:13:03.576Z,0
2023-05-19T22:23:42.337Z,0
2023-05-19T22:29:01.693Z,0
2023-05-19T22:39:40.605Z,0
2023-05-19T22:55:39.793Z,0
2023-05-19T23:06:18.713Z,0
2023-05-19T23:11:37.443Z,0
2023-05-19T23:22:16.410Z,0
2023-05-19T23:27:35.536Z,0
2023-05-19T23:38:14.235Z,0
2023-05-19T23:43:33.386Z,0
2023-05-19T23:48:52.660Z,0
2023-05-19T23:59:30.548Z,0
